• Join FlightAware (Why Join?)
  • Login
  • US Flag GB Flag 
10:49 EDT


 

Airport Tracker/Info


-or-


 

Live Flight TrackerFlight Track Log ✈ AWE2740 ✈ 08-May-2013 ✈ KCHS - KCLT

Flight Track Log - Related Links

Times and Time Zones

All times are in EDT time to prevent confusion due to time zone crossing. See the AWE2740 flight status page for this flight to view local times or setup timezone preferences in your user account.

Time Position Orientation Groundspeed Altitude Reporting Facility
EDT Latitude Longitude Course Direction KTS MPH feet Rate Location/Type
18:19 33.1705 -79.9518 19° North  Level FlightAware Approximate
18:19 32.8758 -79.9667 13° North 289 333 6,000  Level Jacksonville Center
18:20 33.2664 -79.9234 North  Level FlightAware Approximate
18:20 32.9461 -79.9297 24° Northeast 289 333 9,200  Level Jacksonville Center
18:21 33.3601 -79.8866 23° Northeast  Level FlightAware Approximate
18:21 33.0317 -79.9342 358° North 284 327 10,900  Level Jacksonville Center
18:22 33.4573 -79.8646 13° North  Level FlightAware Approximate
18:22 33.1403 -79.9381 358° North 328 377 13,800  Level Jacksonville Center
18:23 33.5537 -79.8371 13° North  Level FlightAware Approximate
18:23 33.2406 -79.9422 358° North 352 405 16,800  Level Jacksonville Center
18:24 33.6502 -79.8095 13° North  Level FlightAware Approximate
18:24 33.3372 -79.9689 347° North 352 405 18,700  Level Jacksonville Center
18:25 33.4442 -79.9975 347° North 365 420 19,000 120 Climbing Jacksonville Center
18:26 33.5492 -80.0267 347° North 377 434 19,000  Level Jacksonville Center
18:27 33.6542 -80.0531 348° North 382 440 19,000  Level Jacksonville Center
18:28 33.7656 -80.0844 347° North 388 447 19,000  Level Jacksonville Center
18:29 33.8747 -80.1136 347° North 394 453 19,000  Level Jacksonville Center
18:30 33.9858 -80.1450 347° North 399 459 19,000  Level Jacksonville Center
18:31 34.0992 -80.1767 347° North 405 466 19,000  Level Jacksonville Center
18:32 34.2125 -80.2058 348° North 405 466 19,000  Level Jacksonville Center
18:33 34.3258 -80.2375 347° North 412 474 19,000 -1,200 Level Jacksonville Center
18:34 34.4350 -80.2667 348° North 412 474 16,600 -2,820 Descending Jacksonville Center
18:35 34.5400 -80.2964 347° North 406 467 13,400 -2,640 Descending Jacksonville Center
18:36 34.6544 -80.3294 347° North 356 410 11,000 -1,140 Descending Atlanta Center
18:37 34.7244 -80.3717 334° Northwest 271 312 11,000  Level Atlanta Center